createdAt,value
2022-10-03T00:00:36.286Z,101183.72
2022-10-03T00:03:33.809Z,101193.50
2022-10-03T00:06:43.756Z,101199.78
2022-10-03T00:09:56.363Z,101194.78
2022-10-03T00:12:50.397Z,101206.75
2022-10-03T00:15:36.389Z,101206.88
2022-10-03T00:18:22.516Z,101203.56
2022-10-03T00:21:07.384Z,101205.22
2022-10-03T00:24:05.150Z,101204.34
2022-10-03T00:26:55.496Z,101213.56
2022-10-03T00:29:44.114Z,101213.59
2022-10-03T00:32:24.088Z,101214.91
2022-10-03T00:35:28.049Z,101219.06
2022-10-03T00:38:06.745Z,101216.22
2022-10-03T00:41:27.707Z,101222.22
2022-10-03T00:44:41.111Z,101217.53
2022-10-03T00:47:22.352Z,101215.63
2022-10-03T00:50:28.936Z,101229.78
2022-10-03T00:53:30.532Z,101230.13
2022-10-03T00:56:15.819Z,101228.75
2022-10-03T00:59:32.106Z,101238.28
2022-10-03T01:02:20.023Z,101239.97
2022-10-03T01:05:53.695Z,101238.66
2022-10-03T01:08:39.295Z,101239.50
2022-10-03T01:11:50.962Z,101242.56
2022-10-03T01:14:52.606Z,101242.56
2022-10-03T01:18:01.351Z,101260.88
2022-10-03T01:21:11.718Z,101254.84
2022-10-03T01:24:03.562Z,101255.09
2022-10-03T01:26:45.259Z,101266.56
2022-10-03T01:29:39.217Z,101272.84
2022-10-03T01:32:31.947Z,101264.31
2022-10-03T01:35:24.418Z,101267.16
2022-10-03T01:38:22.539Z,101253.91
2022-10-03T01:41:02.251Z,101250.34
2022-10-03T01:43:42.807Z,101257.94
2022-10-03T01:46:23.635Z,101256.97
2022-10-03T01:49:11.222Z,101259.56
2022-10-03T01:52:11.741Z,101257.69
2022-10-03T01:55:05.412Z,101263.25
2022-10-03T01:58:05.812Z,101259.34
2022-10-03T02:00:47.457Z,101272.59
2022-10-03T02:03:52.350Z,101265.88
2022-10-03T02:06:35.321Z,101265.03
2022-10-03T02:09:46.615Z,101266.66
2022-10-03T02:12:30.396Z,101267.78
2022-10-03T02:15:24.067Z,101270.69
2022-10-03T02:18:02.341Z,101264.66
2022-10-03T02:20:48.968Z,101261.84
2022-10-03T02:23:31.641Z,101271.16
2022-10-03T02:26:31.160Z,101258.53
2022-10-03T02:29:47.474Z,101262.81
2022-10-03T02:32:54.729Z,101259.63
2022-10-03T02:35:56.926Z,101266.19
2022-10-03T02:39:19.514Z,101268.16
2022-10-03T02:42:29.555Z,101267.22
2022-10-03T02:44:59.254Z,101265.34
2022-10-03T02:47:42.855Z,101261.69
2022-10-03T02:50:44.633Z,101260.56
2022-10-03T02:53:54.423Z,101264.81
2022-10-03T02:57:02.544Z,101267.66
2022-10-03T03:00:05.322Z,101262.03
2022-10-03T03:03:06.134Z,101261.81
2022-10-03T03:05:54.682Z,101263.47
2022-10-03T03:09:00.589Z,101263.19
2022-10-03T03:11:48.921Z,101259.16
2022-10-03T03:14:47.170Z,101250.63
2022-10-03T03:17:21.728Z,101247.69
2022-10-03T03:20:29.429Z,101249.00
2022-10-03T03:23:46.796Z,101256.56
2022-10-03T03:26:25.297Z,101274.25
2022-10-03T03:29:21.317Z,101273.22
2022-10-03T03:32:24.982Z,101272.94
2022-10-03T03:35:49.511Z,101276.59
2022-10-03T03:38:32.143Z,101281.56
2022-10-03T03:41:31.447Z,101287.69
2022-10-03T03:44:08.315Z,101291.84
2022-10-03T03:47:12.357Z,101287.09
2022-10-03T03:50:29.487Z,101285.91
2022-10-03T03:53:41.245Z,101304.38
2022-10-03T03:57:09.467Z,101299.06
2022-10-03T03:59:54.814Z,101292.75
2022-10-03T04:02:48.902Z,101297.47
2022-10-03T04:05:50.215Z,101305.00
2022-10-03T04:08:42.326Z,101288.81
2022-10-03T04:11:37.868Z,101306.31
2022-10-03T04:14:19.990Z,101301.47
2022-10-03T04:17:34.699Z,101313.91
2022-10-03T04:20:44.125Z,101318.84
2022-10-03T04:23:35.399Z,101318.69
2022-10-03T04:26:40.591Z,101330.47
2022-10-03T04:29:34.406Z,101324.03
2022-10-03T04:32:34.983Z,101315.75
2022-10-03T04:35:36.710Z,101320.41
2022-10-03T04:38:44.489Z,101321.25
2022-10-03T04:41:44.980Z,101317.91
2022-10-03T04:44:37.334Z,101319.19
2022-10-03T04:47:33.196Z,101317.84
2022-10-03T04:50:40.555Z,101323.19
2022-10-03T04:53:46.151Z,101329.53
2022-10-03T04:56:43.541Z,101316.78
2022-10-03T04:59:25.726Z,101319.44
2022-10-03T05:02:03.330Z,101323.94
2022-10-03T05:04:39.157Z,101327.50
2022-10-03T05:07:33.928Z,101323.50
2022-10-03T05:10:30.485Z,101329.13
2022-10-03T05:13:08.565Z,101325.03
2022-10-03T05:16:14.754Z,101335.50
2022-10-03T05:19:22.262Z,101344.97
2022-10-03T05:21:56.029Z,101350.22
2022-10-03T05:24:37.107Z,101351.03
2022-10-03T05:27:18.795Z,101354.50
2022-10-03T05:30:41.839Z,101356.16
2022-10-03T05:33:36.121Z,101349.53
2022-10-03T05:36:29.179Z,101352.56
2022-10-03T05:39:37.200Z,101361.59
2022-10-03T05:42:23.006Z,101360.66
2022-10-03T05:45:23.548Z,101356.88
2022-10-03T05:48:19.293Z,101362.91
2022-10-03T05:51:21.855Z,101361.06
2022-10-03T05:54:39.867Z,101365.06
2022-10-03T05:57:35.800Z,101372.72
2022-10-03T06:00:15.660Z,101378.88
2022-10-03T06:02:45.582Z,101391.16
2022-10-03T06:05:35.303Z,101394.50
2022-10-03T06:09:00.244Z,101390.69
2022-10-03T06:11:55.339Z,101395.03
2022-10-03T06:15:07.835Z,101402.72
2022-10-03T06:18:32.262Z,101406.88
2022-10-03T06:21:38.221Z,101411.63
2022-10-03T06:24:20.469Z,101413.59
2022-10-03T06:27:05.358Z,101402.25
2022-10-03T06:30:21.981Z,101413.59
2022-10-03T06:33:49.309Z,101407.88
2022-10-03T06:37:01.145Z,101417.03
2022-10-03T06:40:23.811Z,101424.75
2022-10-03T06:43:31.965Z,101422.94
2022-10-03T06:46:33.388Z,101419.44
2022-10-03T06:49:45.123Z,101426.19
2022-10-03T06:52:49.257Z,101431.78
2022-10-03T06:56:02.810Z,101432.44
2022-10-03T06:59:01.945Z,101432.06
2022-10-03T07:01:56.818Z,101441.84
2022-10-03T07:04:53.825Z,101441.75
2022-10-03T07:07:54.008Z,101437.75
2022-10-03T07:10:39.458Z,101443.72
2022-10-03T07:13:28.571Z,101439.50
2022-10-03T07:16:48.587Z,101435.34
2022-10-03T07:19:53.038Z,101439.13
2022-10-03T07:23:00.033Z,101437.84
2022-10-03T07:25:55.868Z,101442.47
2022-10-03T07:29:10.374Z,101445.41
2022-10-03T07:32:29.881Z,101452.03
2022-10-03T07:35:17.239Z,101451.31
2022-10-03T07:38:34.878Z,101450.75
2022-10-03T07:41:41.698Z,101457.22
2022-10-03T07:44:29.629Z,101460.41
2022-10-03T07:47:20.683Z,101460.53
2022-10-03T07:50:09.425Z,101465.91
2022-10-03T07:52:44.446Z,101464.84
2022-10-03T07:55:38.217Z,101466.72
2022-10-03T07:58:26.698Z,101460.88
2022-10-03T08:01:30.674Z,101465.13
2022-10-03T08:04:36.745Z,101468.94
2022-10-03T08:07:03.549Z,101475.16
2022-10-03T08:09:56.148Z,101472.06
2022-10-03T08:12:25.775Z,101466.41
2022-10-03T08:14:58.354Z,101472.88
2022-10-03T08:17:39.955Z,101479.16
2022-10-03T08:20:44.333Z,101470.88
2022-10-03T08:23:58.610Z,101462.88
2022-10-03T08:26:52.990Z,101469.66
2022-10-03T08:29:22.461Z,101470.38
2022-10-03T08:32:50.795Z,101471.13
2022-10-03T08:35:54.618Z,101468.94
2022-10-03T08:38:46.004Z,101476.47
2022-10-03T08:41:50.015Z,101479.53
2022-10-03T08:44:34.827Z,101478.72
2022-10-03T08:47:16.708Z,101468.28
2022-10-03T08:50:06.213Z,101482.56
2022-10-03T08:53:24.885Z,101465.69
2022-10-03T08:56:01.224Z,101467.56
2022-10-03T08:58:43.855Z,101459.75
2022-10-03T09:01:29.393Z,101460.25
2022-10-03T09:04:45.128Z,101465.53
2022-10-03T09:07:53.494Z,101452.44
2022-10-03T09:11:11.359Z,101445.47
2022-10-03T09:14:05.449Z,101440.44
2022-10-03T09:16:55.146Z,101441.19
2022-10-03T09:20:05.070Z,101448.31
2022-10-03T09:23:25.663Z,101446.53
2022-10-03T09:26:43.292Z,101442.75
2022-10-03T09:30:10.719Z,101433.84
2022-10-03T09:33:17.574Z,101438.47
2022-10-03T09:36:07.701Z,101445.28
2022-10-03T09:39:11.466Z,101439.78
2022-10-03T09:42:27.527Z,101434.81
2022-10-03T09:45:22.652Z,101430.88
2022-10-03T09:48:25.545Z,101429.78
2022-10-03T09:51:31.215Z,101419.91
2022-10-03T09:54:22.375Z,101414.16
2022-10-03T09:57:09.177Z,101416.06
2022-10-03T09:59:53.038Z,101418.44
2022-10-03T10:02:37.847Z,101412.22
2022-10-03T10:05:51.481Z,101417.59
2022-10-03T10:09:01.907Z,101418.97
2022-10-03T10:11:45.072Z,101411.50
2022-10-03T10:14:31.751Z,101412.66
2022-10-03T10:17:17.280Z,101404.72
2022-10-03T10:20:50.636Z,101424.56
2022-10-03T10:24:05.845Z,101423.16
2022-10-03T10:27:03.494Z,101412.44
2022-10-03T10:29:42.267Z,101407.66
2022-10-03T10:33:07.361Z,101423.94
2022-10-03T10:36:27.056Z,101421.44
2022-10-03T10:39:15.640Z,101427.66
2022-10-03T10:42:30.152Z,101433.00
2022-10-03T10:45:35.946Z,101423.09
2022-10-03T10:49:03.709Z,101432.75
2022-10-03T10:51:42.817Z,101440.34
2022-10-03T10:54:51.828Z,101434.59
2022-10-03T10:57:45.421Z,101426.34
2022-10-03T11:01:26.083Z,101418.94
2022-10-03T11:04:50.606Z,101404.16
2022-10-03T11:07:38.762Z,101386.97
2022-10-03T11:10:23.746Z,101382.59
2022-10-03T11:13:21.240Z,101383.53
2022-10-03T11:16:45.247Z,101385.00
2022-10-03T11:19:42.427Z,101402.94
2022-10-03T11:22:41.382Z,101386.81
2022-10-03T11:25:47.158Z,101401.66
2022-10-03T11:28:45.832Z,101386.47
2022-10-03T11:31:54.455Z,101386.56
2022-10-03T11:35:08.206Z,101387.06
2022-10-03T11:37:47.378Z,101393.38
2022-10-03T11:41:08.621Z,101387.06
2022-10-03T11:43:44.453Z,101398.28
2022-10-03T11:46:57.239Z,101378.19
2022-10-03T11:49:48.722Z,101363.22
2022-10-03T11:52:54.087Z,101360.78
2022-10-03T11:55:35.553Z,101355.63
2022-10-03T11:58:54.950Z,101353.38
2022-10-03T12:01:42.464Z,101346.69
2022-10-03T12:04:30.927Z,101349.44
2022-10-03T12:07:45.739Z,101339.78
2022-10-03T12:10:39.000Z,101333.38
2022-10-03T12:13:30.670Z,101328.25
2022-10-03T12:15:58.948Z,101332.06
2022-10-03T12:18:42.455Z,101343.72
2022-10-03T12:21:53.916Z,101342.34
2022-10-03T12:24:41.210Z,101336.22
2022-10-03T12:27:30.272Z,101348.41
2022-10-03T12:30:03.783Z,101351.59
2022-10-03T12:33:01.392Z,101351.94
2022-10-03T12:35:50.642Z,101339.38
2022-10-03T12:38:35.651Z,101340.09
2022-10-03T12:41:40.730Z,101329.56
2022-10-03T12:44:34.655Z,101330.50
2022-10-03T12:47:37.697Z,101320.66
2022-10-03T12:50:44.055Z,101320.03
2022-10-03T12:53:19.601Z,101305.88
2022-10-03T12:56:14.187Z,101320.19
2022-10-03T12:59:03.240Z,101316.31
2022-10-03T13:02:12.357Z,101332.81
2022-10-03T13:05:29.609Z,101323.78
2022-10-03T13:08:27.602Z,101311.84
2022-10-03T13:11:26.120Z,101323.28
2022-10-03T13:14:21.255Z,101302.94
2022-10-03T13:17:20.144Z,101306.06
2022-10-03T13:20:28.660Z,101307.50
2022-10-03T13:23:25.307Z,101297.16
2022-10-03T13:26:18.418Z,101295.91
2022-10-03T13:29:13.097Z,101284.53
2022-10-03T13:32:05.584Z,101299.47
2022-10-03T13:34:47.394Z,101285.72
2022-10-03T13:38:17.429Z,101287.41
2022-10-03T13:41:17.598Z,101273.31
2022-10-03T13:44:17.821Z,101268.84
2022-10-03T13:47:00.196Z,101264.31
2022-10-03T13:50:01.302Z,101263.28
2022-10-03T13:52:34.024Z,101268.88
2022-10-03T13:55:03.767Z,101269.97
2022-10-03T13:58:10.149Z,101277.97
2022-10-03T14:01:05.190Z,101269.16
2022-10-03T14:03:44.791Z,101253.41
2022-10-03T14:06:52.509Z,101257.94
2022-10-03T14:09:57.986Z,101256.16
2022-10-03T14:12:51.131Z,101253.06
2022-10-03T14:15:49.168Z,101247.91
2022-10-03T14:18:21.766Z,101242.34
2022-10-03T14:21:19.523Z,101253.88
2022-10-03T14:24:36.810Z,101253.72
2022-10-03T14:27:28.782Z,101251.94
2022-10-03T14:30:18.260Z,101261.78
2022-10-03T14:33:00.803Z,101268.66
2022-10-03T14:35:53.830Z,101278.13
2022-10-03T14:39:03.331Z,101278.50
2022-10-03T14:41:33.318Z,101281.53
2022-10-03T14:44:13.034Z,101281.94
2022-10-03T14:46:51.516Z,101292.13
2022-10-03T14:49:52.181Z,101285.69
2022-10-03T14:52:22.551Z,101296.41
2022-10-03T14:54:52.516Z,101297.22
2022-10-03T14:57:37.068Z,101288.00
2022-10-03T15:00:38.808Z,101280.00
2022-10-03T15:03:18.140Z,101261.78
2022-10-03T15:06:13.931Z,101259.16
2022-10-03T15:08:46.866Z,101251.09
2022-10-03T15:11:17.176Z,101258.03
2022-10-03T15:13:57.422Z,101255.84
2022-10-03T15:16:25.667Z,101267.03
2022-10-03T15:19:08.030Z,101245.53
2022-10-03T15:21:35.598Z,101246.50
2022-10-03T15:24:07.112Z,101235.03
2022-10-03T15:26:36.510Z,101231.22
2022-10-03T15:29:06.849Z,101229.56
2022-10-03T15:31:41.601Z,101224.13
2022-10-03T15:34:21.616Z,101214.50
2022-10-03T15:36:58.580Z,101215.25
2022-10-03T15:39:36.075Z,101234.19
2022-10-03T15:42:26.668Z,101230.41
2022-10-03T15:44:57.805Z,101220.84
2022-10-03T15:47:28.816Z,101229.53
2022-10-03T15:50:07.104Z,101250.81
2022-10-03T15:52:49.573Z,101247.75
2022-10-03T15:55:24.175Z,101247.19
2022-10-03T15:58:11.398Z,101255.16
2022-10-03T16:00:38.858Z,101253.22
2022-10-03T16:03:33.218Z,101259.09
2022-10-03T16:06:16.528Z,101253.22
2022-10-03T16:09:07.951Z,101262.50
2022-10-03T16:12:22.136Z,101259.78
2022-10-03T16:14:56.371Z,101267.66
2022-10-03T16:17:40.200Z,101265.53
2022-10-03T16:20:15.330Z,101277.28
2022-10-03T16:22:49.733Z,101270.09
2022-10-03T16:25:28.475Z,101268.38
2022-10-03T16:28:03.393Z,101272.56
2022-10-03T16:30:43.579Z,101274.06
2022-10-03T16:33:17.099Z,101269.09
2022-10-03T16:35:51.407Z,101275.31
2022-10-03T16:39:01.965Z,101270.78
2022-10-03T16:41:35.392Z,101271.09
2022-10-03T16:44:18.822Z,101269.59
2022-10-03T16:46:48.269Z,101266.44
2022-10-03T16:49:59.071Z,101257.63
2022-10-03T16:52:40.956Z,101271.31
2022-10-03T16:55:14.399Z,101264.56
2022-10-03T16:57:52.706Z,101263.88
2022-10-03T17:01:25.286Z,101251.03
2022-10-03T17:04:29.220Z,101267.06
2022-10-03T17:07:01.487Z,101254.38
2022-10-03T17:09:36.479Z,101266.56
2022-10-03T17:12:08.703Z,101285.06
2022-10-03T17:14:41.914Z,101278.88
2022-10-03T17:17:39.909Z,101272.53
2022-10-03T17:20:19.655Z,101263.63
2022-10-03T17:23:01.471Z,101261.25
2022-10-03T17:26:14.612Z,101271.22
2022-10-03T17:29:01.248Z,101270.25
2022-10-03T17:31:38.480Z,101261.03
2022-10-03T17:34:33.886Z,101249.63
2022-10-03T17:37:20.900Z,101251.53
2022-10-03T17:40:19.912Z,101239.00
2022-10-03T17:43:32.207Z,101241.06
2022-10-03T17:46:21.890Z,101245.78
2022-10-03T17:49:06.079Z,101240.91
2022-10-03T17:51:44.945Z,101241.16
2022-10-03T17:54:17.274Z,101247.19
2022-10-03T17:57:11.806Z,101255.28
2022-10-03T17:59:50.787Z,101238.25
2022-10-03T18:02:35.344Z,101238.25
2022-10-03T18:05:20.810Z,101244.00
2022-10-03T18:07:50.866Z,101244.81
2022-10-03T18:10:35.133Z,101254.13
2022-10-03T18:13:08.046Z,101256.22
2022-10-03T18:16:11.199Z,101251.00
2022-10-03T18:19:21.774Z,101263.94
2022-10-03T18:22:43.507Z,101264.16
2022-10-03T18:28:56.350Z,101257.19
2022-10-03T18:31:26.012Z,101256.91
2022-10-03T18:34:01.660Z,101247.72
2022-10-03T18:36:38.367Z,101244.31
2022-10-03T18:39:19.566Z,101240.06
2022-10-03T18:41:50.927Z,101235.53
2022-10-03T18:44:22.628Z,101242.41
2022-10-03T18:47:11.464Z,101235.50
2022-10-03T18:49:41.334Z,101225.72
2022-10-03T18:52:15.799Z,101232.53
2022-10-03T18:54:59.043Z,101220.16
2022-10-03T18:57:49.152Z,101235.19
2022-10-03T19:00:31.599Z,101238.56
2022-10-03T19:03:15.661Z,101241.25
2022-10-03T19:06:00.475Z,101240.97
2022-10-03T19:08:41.499Z,101252.72
2022-10-03T19:11:20.774Z,101245.19
2022-10-03T19:14:13.394Z,101242.59
2022-10-03T19:16:49.823Z,101241.13
2022-10-03T19:19:25.608Z,101233.88
2022-10-03T19:21:53.763Z,101242.91
2022-10-03T19:24:40.149Z,101238.56
2022-10-03T19:27:17.666Z,101238.53
2022-10-03T19:29:55.260Z,101234.09
2022-10-03T19:33:13.478Z,101236.34
2022-10-03T19:35:47.482Z,101235.44
2022-10-03T19:38:39.173Z,101234.22
2022-10-03T19:41:30.727Z,101221.50
2022-10-03T19:44:07.989Z,101232.22
2022-10-03T19:46:37.638Z,101230.56
2022-10-03T19:49:34.845Z,101225.34
2022-10-03T19:52:33.314Z,101234.53
2022-10-03T19:55:22.308Z,101237.16
2022-10-03T19:57:52.691Z,101238.94
2022-10-03T20:00:22.704Z,101235.66
2022-10-03T20:03:25.335Z,101250.69
2022-10-03T20:06:29.381Z,101241.84
2022-10-03T20:09:01.565Z,101239.44
2022-10-03T20:11:49.292Z,101229.03
2022-10-03T20:14:32.021Z,101224.19
2022-10-03T20:17:04.850Z,101217.72
2022-10-03T20:19:57.316Z,101216.88
2022-10-03T20:22:28.390Z,101211.69
2022-10-03T20:24:55.629Z,101209.63
2022-10-03T20:27:45.039Z,101210.16
2022-10-03T20:30:36.178Z,101214.91
2022-10-03T20:33:04.065Z,101221.53
2022-10-03T20:35:53.814Z,101226.47
2022-10-03T20:38:57.930Z,101226.56
2022-10-03T20:41:43.136Z,101219.00
2022-10-03T20:44:28.270Z,101216.00
2022-10-03T20:47:46.603Z,101227.41
2022-10-03T20:50:22.242Z,101215.84
2022-10-03T20:52:53.167Z,101210.19
2022-10-03T20:55:32.048Z,101218.22
2022-10-03T20:58:12.579Z,101222.94
2022-10-03T21:00:48.752Z,101221.78
2022-10-03T21:03:29.063Z,101207.91
2022-10-03T21:05:58.991Z,101225.50
2022-10-03T21:08:37.225Z,101228.44
2022-10-03T21:11:28.717Z,101214.66
2022-10-03T21:14:11.210Z,101207.00
2022-10-03T21:16:46.294Z,101199.19
2022-10-03T21:19:22.051Z,101189.84
2022-10-03T21:21:54.763Z,101195.31
2022-10-03T21:24:41.694Z,101198.94
2022-10-03T21:27:15.238Z,101201.22
2022-10-03T21:30:13.575Z,101195.59
2022-10-03T21:33:36.317Z,101190.03
2022-10-03T21:36:17.435Z,101203.19
2022-10-03T21:38:50.242Z,101202.56
2022-10-03T21:41:40.397Z,101200.41
2022-10-03T21:44:39.501Z,101202.38
2022-10-03T21:47:21.322Z,101201.47
2022-10-03T21:49:57.856Z,101197.56
2022-10-03T21:52:45.044Z,101185.47
2022-10-03T21:55:51.789Z,101188.06
2022-10-03T21:58:43.588Z,101180.53
2022-10-03T22:01:31.998Z,101177.06
2022-10-03T22:04:17.012Z,101179.94
2022-10-03T22:07:11.991Z,101172.91
2022-10-03T22:09:55.056Z,101182.41
2022-10-03T22:12:22.564Z,101176.91
2022-10-03T22:15:27.081Z,101183.84
2022-10-03T22:18:05.347Z,101181.69
2022-10-03T22:20:34.651Z,101177.69
2022-10-03T22:23:39.656Z,101165.34
2022-10-03T22:26:15.843Z,101170.38
2022-10-03T22:28:55.871Z,101170.53
2022-10-03T22:32:03.035Z,101177.91
2022-10-03T22:34:54.223Z,101175.22
2022-10-03T22:37:22.223Z,101172.25
2022-10-03T22:39:50.162Z,101164.75
2022-10-03T22:42:18.770Z,101165.75
2022-10-03T22:44:50.710Z,101160.75
2022-10-03T22:47:31.750Z,101158.81
2022-10-03T22:50:08.977Z,101155.88
2022-10-03T22:52:43.786Z,101157.88
2022-10-03T22:55:14.586Z,101146.41
2022-10-03T22:57:44.170Z,101136.75
2022-10-03T23:00:21.143Z,101140.16
2022-10-03T23:02:57.755Z,101131.13
2022-10-03T23:06:07.631Z,101132.47
2022-10-03T23:09:19.429Z,101135.78
2022-10-03T23:11:49.951Z,101136.78
2022-10-03T23:14:33.482Z,101130.66
2022-10-03T23:17:12.353Z,101133.34
2022-10-03T23:19:53.931Z,101126.50
2022-10-03T23:22:26.258Z,101121.81
2022-10-03T23:25:14.256Z,101131.03
2022-10-03T23:28:14.505Z,101131.69
2022-10-03T23:30:53.959Z,101116.88
2022-10-03T23:33:48.546Z,101126.81
2022-10-03T23:36:19.757Z,101111.09
2022-10-03T23:38:58.850Z,101118.53
2022-10-03T23:41:41.012Z,101115.78
2022-10-03T23:44:30.419Z,101116.91
2022-10-03T23:46:59.500Z,101112.59
2022-10-03T23:49:26.380Z,101114.34
2022-10-03T23:51:53.560Z,101112.50
2022-10-03T23:54:21.700Z,101108.03
2022-10-03T23:56:50.464Z,101097.13
2022-10-03T23:59:25.533Z,101096.00
